createdAt,value
2023-02-18T00:00:33.291Z,6
2023-02-18T00:01:39.312Z,6
2023-02-18T00:02:45.161Z,6
2023-02-18T00:03:51.103Z,6
2023-02-18T00:05:34.063Z,6
2023-02-18T00:06:40.033Z,6
2023-02-18T00:07:45.986Z,6
2023-02-18T00:08:51.885Z,6
2023-02-18T00:10:38.993Z,5
2023-02-18T00:11:44.834Z,6
2023-02-18T00:12:50.757Z,5
2023-02-18T00:14:33.848Z,5
2023-02-18T00:15:39.890Z,6
2023-02-18T00:16:45.621Z,5
2023-02-18T00:18:28.618Z,5
2023-02-18T00:19:34.548Z,5
2023-02-18T00:20:40.471Z,5
2023-02-18T00:21:46.410Z,5
2023-02-18T00:23:29.481Z,5
2023-02-18T00:24:39.526Z,6
2023-02-18T00:25:45.405Z,5
2023-02-18T00:27:28.363Z,5
2023-02-18T00:28:34.296Z,5
2023-02-18T00:29:40.228Z,6
2023-02-18T00:30:46.222Z,5
2023-02-18T00:32:29.241Z,5
2023-02-18T00:33:35.088Z,6
2023-02-18T00:34:40.961Z,5
2023-02-18T00:35:47.023Z,5
2023-02-18T00:39:21.092Z,5
2023-02-18T00:39:54.092Z,5
2023-02-18T00:41:37.120Z,5
2023-02-18T00:42:43.005Z,5
2023-02-18T00:43:49.022Z,5
2023-02-18T00:45:31.914Z,5
2023-02-18T00:46:38.117Z,5
2023-02-18T00:47:43.779Z,5
2023-02-18T00:48:49.738Z,5
2023-02-18T00:50:32.758Z,5
2023-02-18T00:51:38.690Z,5
2023-02-18T00:52:44.557Z,5
2023-02-18T00:53:50.461Z,5
2023-02-18T00:55:33.536Z,5
2023-02-18T00:56:39.496Z,5
2023-02-18T00:57:45.393Z,4
2023-02-18T00:58:51.263Z,5
2023-02-18T01:00:34.292Z,5
2023-02-18T01:01:40.212Z,5
2023-02-18T01:02:46.154Z,5
2023-02-18T01:04:29.220Z,5
2023-02-18T01:05:35.135Z,5
2023-02-18T01:06:41.000Z,5
2023-02-18T01:07:46.965Z,5
2023-02-18T01:09:34.001Z,5
2023-02-18T01:10:40.014Z,5
2023-02-18T01:11:45.941Z,5
2023-02-18T01:12:51.850Z,5
2023-02-18T01:14:34.792Z,5
2023-02-18T01:15:40.737Z,5
2023-02-18T01:16:46.624Z,5
2023-02-18T01:19:39.659Z,5
2023-02-18T01:20:45.647Z,5
2023-02-18T01:21:55.656Z,5
2023-02-18T01:23:42.814Z,5
2023-02-18T01:24:48.747Z,4
2023-02-18T01:26:31.614Z,5
2023-02-18T01:27:37.643Z,5
2023-02-18T01:28:43.485Z,5
2023-02-18T01:29:49.502Z,5
2023-02-18T01:31:32.710Z,5
2023-02-18T01:32:38.335Z,5
2023-02-18T01:33:44.307Z,5
2023-02-18T01:34:54.331Z,4
2023-02-18T01:36:41.368Z,5
2023-02-18T01:37:47.352Z,5
2023-02-18T01:39:30.315Z,4
2023-02-18T01:40:36.301Z,4
2023-02-18T01:41:42.236Z,4
2023-02-18T01:42:52.220Z,4
2023-02-18T01:44:35.519Z,4
2023-02-18T01:45:41.107Z,4
2023-02-18T01:46:47.110Z,4
2023-02-18T01:50:21.252Z,5
2023-02-18T01:50:54.261Z,4
2023-02-18T01:52:37.238Z,4
2023-02-18T01:53:43.105Z,4
2023-02-18T01:54:49.026Z,4
2023-02-18T01:56:32.085Z,4
2023-02-18T01:57:38.090Z,4
2023-02-18T01:58:48.184Z,4
2023-02-18T02:00:35.166Z,4
2023-02-18T02:01:41.131Z,4
2023-02-18T02:02:46.948Z,4
2023-02-18T02:06:21.102Z,5
2023-02-18T02:06:54.075Z,4
2023-02-18T02:08:37.064Z,4
2023-02-18T02:09:43.017Z,4
2023-02-18T02:10:49.053Z,4
2023-02-18T02:12:36.163Z,4
2023-02-18T02:13:41.976Z,4
2023-02-18T02:14:47.985Z,4
2023-02-18T02:16:30.923Z,4
2023-02-18T02:17:36.866Z,4
2023-02-18T02:18:42.731Z,5
2023-02-18T02:19:48.774Z,4
2023-02-18T02:21:35.834Z,5
2023-02-18T02:22:41.671Z,4
2023-02-18T02:23:47.598Z,5
2023-02-18T02:26:40.618Z,5
2023-02-18T02:27:46.542Z,4
2023-02-18T02:30:39.763Z,5
2023-02-18T02:31:49.716Z,5
2023-02-18T02:33:32.683Z,5
2023-02-18T02:34:38.649Z,4
2023-02-18T02:35:44.569Z,5
2023-02-18T02:36:50.384Z,5
2023-02-18T02:38:33.431Z,5
2023-02-18T02:39:39.310Z,5
2023-02-18T02:40:45.255Z,5
2023-02-18T02:41:51.200Z,5
2023-02-18T02:43:34.214Z,5
2023-02-18T02:44:44.221Z,5
2023-02-18T02:45:50.309Z,5
2023-02-18T02:47:33.128Z,5
2023-02-18T02:48:39.091Z,4
2023-02-18T02:49:44.986Z,5
2023-02-18T02:50:50.951Z,5
2023-02-18T02:52:33.976Z,4
2023-02-18T02:53:39.874Z,4
2023-02-18T02:54:49.998Z,4
2023-02-18T02:56:32.868Z,4
2023-02-18T02:57:38.932Z,4
2023-02-18T02:58:44.724Z,4
2023-02-18T02:59:50.669Z,4
2023-02-18T03:01:33.681Z,4
2023-02-18T03:02:39.603Z,4
2023-02-18T03:03:45.583Z,4
2023-02-18T03:05:28.592Z,4
2023-02-18T03:06:34.440Z,4
2023-02-18T03:07:40.331Z,4
2023-02-18T03:08:46.310Z,4
2023-02-18T03:10:29.268Z,4
2023-02-18T03:11:35.296Z,3
2023-02-18T03:12:41.116Z,4
2023-02-18T03:13:47.177Z,3
2023-02-18T03:15:34.252Z,4
2023-02-18T03:16:40.154Z,3
2023-02-18T03:17:46.117Z,3
2023-02-18T03:19:29.132Z,3
2023-02-18T03:20:35.029Z,3
2023-02-18T03:21:40.875Z,3
2023-02-18T03:22:46.828Z,3
2023-02-18T03:24:29.879Z,3
2023-02-18T03:25:35.795Z,3
2023-02-18T03:26:41.657Z,3
2023-02-18T03:27:47.664Z,3
2023-02-18T03:30:40.603Z,3
2023-02-18T03:31:46.770Z,2
2023-02-18T03:33:29.504Z,2
2023-02-18T03:34:35.538Z,2
2023-02-18T03:35:41.388Z,2
2023-02-18T03:36:47.342Z,2
2023-02-18T03:38:30.278Z,2
2023-02-18T03:39:36.288Z,2
2023-02-18T03:40:42.250Z,2
2023-02-18T03:41:52.295Z,2
2023-02-18T03:43:39.300Z,2
2023-02-18T03:44:45.269Z,2
2023-02-18T03:45:51.210Z,2
2023-02-18T03:47:38.347Z,2
2023-02-18T03:48:44.193Z,2
2023-02-18T03:49:50.110Z,2
2023-02-18T03:51:33.202Z,1
2023-02-18T03:52:39.016Z,1
2023-02-18T03:53:44.967Z,1
2023-02-18T03:54:50.839Z,2
2023-02-18T03:56:33.938Z,1
2023-02-18T03:57:39.788Z,1
2023-02-18T03:58:45.761Z,1
2023-02-18T03:59:55.835Z,1
2023-02-18T04:01:42.895Z,1
2023-02-18T04:02:48.824Z,1
2023-02-18T04:04:31.851Z,1
2023-02-18T04:05:37.869Z,1
2023-02-18T04:06:43.733Z,1
2023-02-18T04:07:49.602Z,1
2023-02-18T04:09:36.721Z,1
2023-02-18T04:10:42.558Z,1
2023-02-18T04:11:48.537Z,1
2023-02-18T04:13:31.462Z,1
2023-02-18T04:14:37.536Z,1
2023-02-18T04:15:43.383Z,1
2023-02-18T04:16:49.402Z,1
2023-02-18T04:18:32.318Z,1
2023-02-18T04:19:38.275Z,1
2023-02-18T04:20:44.114Z,1
2023-02-18T04:21:50.078Z,1
2023-02-18T04:23:33.118Z,1
2023-02-18T04:24:39.029Z,1
2023-02-18T04:25:44.966Z,1
2023-02-18T04:26:54.997Z,1
2023-02-18T04:28:41.983Z,1
2023-02-18T04:29:48.019Z,1
2023-02-18T04:31:31.084Z,1
2023-02-18T04:32:36.887Z,1
2023-02-18T04:33:42.901Z,1
2023-02-18T04:34:48.815Z,1
2023-02-18T04:36:31.740Z,1
2023-02-18T04:37:37.789Z,1
2023-02-18T04:38:43.608Z,1
2023-02-18T04:39:49.514Z,1
2023-02-18T04:41:32.512Z,1
2023-02-18T04:42:38.464Z,1
2023-02-18T04:43:44.393Z,1
2023-02-18T04:44:50.325Z,1
2023-02-18T04:46:33.370Z,1
2023-02-18T04:47:39.293Z,1
2023-02-18T04:48:49.348Z,1
2023-02-18T04:50:36.434Z,1
2023-02-18T04:51:42.386Z,1
2023-02-18T04:52:48.214Z,1
2023-02-18T04:54:31.188Z,1
2023-02-18T04:55:37.172Z,1
2023-02-18T04:56:43.186Z,1
2023-02-18T04:57:49.028Z,1
2023-02-18T04:59:36.070Z,1
2023-02-18T05:00:42.125Z,1
2023-02-18T05:01:52.471Z,1
2023-02-18T05:03:39.168Z,1
2023-02-18T05:04:45.101Z,1
2023-02-18T05:05:51.002Z,1
2023-02-18T05:07:34.091Z,1
2023-02-18T05:08:39.913Z,1
2023-02-18T05:09:45.851Z,1
2023-02-18T05:11:28.837Z,1
2023-02-18T05:12:35.024Z,1
2023-02-18T05:13:40.707Z,1
2023-02-18T05:14:50.701Z,1
2023-02-18T05:16:33.840Z,3
2023-02-18T05:17:43.785Z,2
2023-02-18T05:18:49.681Z,1
2023-02-18T05:20:32.778Z,1
2023-02-18T05:21:38.638Z,1
2023-02-18T05:22:44.525Z,1
2023-02-18T05:23:50.429Z,1
2023-02-18T05:25:33.450Z,1
2023-02-18T05:26:39.365Z,1
2023-02-18T05:27:45.388Z,1
2023-02-18T05:28:51.244Z,1
2023-02-18T05:30:38.509Z,1
2023-02-18T05:31:44.435Z,1
2023-02-18T05:32:50.199Z,1
2023-02-18T05:34:33.238Z,1
2023-02-18T05:35:39.115Z,1
2023-02-18T05:36:45.053Z,1
2023-02-18T05:37:50.977Z,1
2023-02-18T05:39:38.060Z,1
2023-02-18T05:40:43.982Z,1
2023-02-18T05:41:49.936Z,1
2023-02-18T05:43:32.983Z,1
2023-02-18T05:44:38.965Z,1
2023-02-18T05:45:44.947Z,1
2023-02-18T05:46:50.715Z,1
2023-02-18T05:48:33.763Z,1
2023-02-18T05:49:39.641Z,1
2023-02-18T05:50:45.681Z,1
2023-02-18T05:52:28.653Z,1
2023-02-18T05:53:34.486Z,1
2023-02-18T05:54:40.399Z,1
2023-02-18T05:55:46.369Z,1
2023-02-18T05:57:29.479Z,1
2023-02-18T05:58:35.322Z,1
2023-02-18T05:59:41.146Z,1
2023-02-18T06:00:47.172Z,1
2023-02-18T06:02:30.148Z,1
2023-02-18T06:03:36.044Z,1
2023-02-18T06:04:42.009Z,1
2023-02-18T06:05:52.084Z,1
2023-02-18T06:07:39.088Z,1
2023-02-18T06:08:45.043Z,1
2023-02-18T06:09:50.916Z,1
2023-02-18T06:11:33.984Z,1
2023-02-18T06:12:40.269Z,1
2023-02-18T06:13:45.816Z,1
2023-02-18T06:15:28.827Z,1
2023-02-18T06:16:34.746Z,1
2023-02-18T06:17:40.669Z,1
2023-02-18T06:18:46.619Z,1
2023-02-18T06:21:39.620Z,1
2023-02-18T06:22:45.535Z,1
2023-02-18T06:24:28.557Z,1
2023-02-18T06:25:34.488Z,1
2023-02-18T06:26:40.372Z,1
2023-02-18T06:27:46.299Z,1
2023-02-18T06:28:19.360Z,1
2023-02-18T06:28:52.241Z,1
2023-02-18T06:30:35.331Z,1
2023-02-18T06:31:41.389Z,1
2023-02-18T06:32:47.136Z,2
2023-02-18T06:34:30.080Z,1
2023-02-18T06:35:36.081Z,1
2023-02-18T06:36:41.934Z,1
2023-02-18T06:37:48.006Z,1
2023-02-18T06:39:30.849Z,1
2023-02-18T06:40:36.845Z,1
2023-02-18T06:41:42.742Z,1
2023-02-18T06:42:48.710Z,1
2023-02-18T06:44:37.830Z,1
2023-02-18T06:45:41.809Z,1
2023-02-18T06:46:47.728Z,3
2023-02-18T06:49:40.603Z,1
2023-02-18T06:50:46.631Z,1
2023-02-18T06:51:56.621Z,1
2023-02-18T06:53:39.601Z,1
2023-02-18T06:54:45.520Z,1
2023-02-18T06:56:30.725Z,1
2023-02-18T06:57:34.437Z,1
2023-02-18T06:58:40.317Z,1
2023-02-18T06:59:46.367Z,1
2023-02-18T07:01:29.283Z,1
2023-02-18T07:02:35.271Z,1
2023-02-18T07:03:41.168Z,1
2023-02-18T07:04:47.099Z,1
2023-02-18T07:06:30.066Z,1
2023-02-18T07:07:36.124Z,1
2023-02-18T07:08:46.136Z,1
2023-02-18T07:10:29.023Z,1
2023-02-18T07:11:34.970Z,1
2023-02-18T07:12:44.956Z,1
2023-02-18T07:13:50.917Z,1
2023-02-18T07:15:33.885Z,1
2023-02-18T07:16:39.920Z,1
2023-02-18T07:17:45.782Z,1
2023-02-18T07:19:28.734Z,1
2023-02-18T07:20:34.693Z,1
2023-02-18T07:21:40.586Z,1
2023-02-18T07:22:46.625Z,1
2023-02-18T07:25:39.701Z,1
2023-02-18T07:26:49.635Z,1
2023-02-18T07:28:32.627Z,1
2023-02-18T07:29:38.569Z,1
2023-02-18T07:30:44.430Z,1
2023-02-18T07:31:50.475Z,1
2023-02-18T07:33:33.503Z,1
2023-02-18T07:34:39.283Z,1
2023-02-18T07:35:45.294Z,1
2023-02-18T07:36:51.131Z,1
2023-02-18T07:38:34.119Z,1
2023-02-18T07:39:40.119Z,1
2023-02-18T07:40:50.102Z,1
2023-02-18T07:42:37.236Z,1
2023-02-18T07:43:43.158Z,1
2023-02-18T07:44:49.086Z,2
2023-02-18T07:46:32.042Z,1
2023-02-18T07:47:37.979Z,1
2023-02-18T07:48:43.944Z,1
2023-02-18T07:49:49.822Z,1
2023-02-18T07:51:32.797Z,1
2023-02-18T07:52:38.802Z,2
2023-02-18T07:53:48.882Z,1
2023-02-18T07:55:35.898Z,1
2023-02-18T07:56:41.826Z,1
2023-02-18T07:57:47.739Z,1
2023-02-18T07:59:30.696Z,1
2023-02-18T08:00:36.741Z,1
2023-02-18T08:01:45.015Z,1
2023-02-18T08:02:48.517Z,1
2023-02-18T08:04:31.613Z,1
2023-02-18T08:05:37.444Z,1
2023-02-18T08:06:43.362Z,1
2023-02-18T08:07:49.330Z,1
2023-02-18T08:09:32.293Z,1
2023-02-18T08:10:38.367Z,1
2023-02-18T08:11:44.346Z,1
2023-02-18T08:12:50.117Z,1
2023-02-18T08:14:33.169Z,1
2023-02-18T08:15:39.098Z,1
2023-02-18T08:16:45.147Z,1
2023-02-18T08:17:50.866Z,1
2023-02-18T08:19:33.997Z,1
2023-02-18T08:20:43.927Z,1
2023-02-18T08:21:54.000Z,1
2023-02-18T08:23:37.021Z,1
2023-02-18T08:24:42.866Z,1
2023-02-18T08:25:52.879Z,1
2023-02-18T08:28:45.927Z,1
2023-02-18T08:29:51.788Z,2
2023-02-18T08:31:34.948Z,1
2023-02-18T08:32:40.740Z,1
2023-02-18T08:33:46.653Z,1
2023-02-18T08:35:29.707Z,1
2023-02-18T08:36:35.580Z,1
2023-02-18T08:37:53.008Z,1
2023-02-18T08:38:47.478Z,1
2023-02-18T08:40:30.418Z,1
2023-02-18T08:41:36.413Z,1
2023-02-18T08:42:42.304Z,1
2023-02-18T08:43:48.338Z,1
2023-02-18T08:45:36.173Z,1
2023-02-18T08:46:41.375Z,1
2023-02-18T08:48:16.546Z,1
2023-02-18T08:49:30.152Z,1
2023-02-18T08:50:36.085Z,1
2023-02-18T08:51:42.257Z,1
2023-02-18T08:52:47.952Z,1
2023-02-18T08:54:30.966Z,2
2023-02-18T08:55:36.873Z,2
2023-02-18T08:56:42.909Z,2
2023-02-18T08:57:48.740Z,2
2023-02-18T08:59:31.761Z,2
2023-02-18T09:00:41.775Z,2
2023-02-18T09:01:47.885Z,2
2023-02-18T09:03:30.651Z,2
2023-02-18T09:04:36.627Z,2
2023-02-18T09:05:42.568Z,2
2023-02-18T09:06:48.553Z,2
2023-02-18T09:08:31.420Z,2
2023-02-18T09:09:37.625Z,2
2023-02-18T09:10:45.386Z,2
2023-02-18T09:11:49.335Z,2
2023-02-18T09:13:32.283Z,2
2023-02-18T09:14:38.246Z,2
2023-02-18T09:15:44.233Z,2
2023-02-18T09:16:50.036Z,2
2023-02-18T09:18:33.027Z,2
2023-02-18T09:19:39.013Z,2
2023-02-18T09:20:44.997Z,2
2023-02-18T09:21:50.818Z,2
2023-02-18T09:23:33.806Z,2
2023-02-18T09:24:39.765Z,2
2023-02-18T09:25:45.704Z,2
2023-02-18T09:26:55.863Z,2
2023-02-18T09:28:42.812Z,4
2023-02-18T09:29:48.715Z,3
2023-02-18T09:31:31.840Z,2
2023-02-18T09:32:41.791Z,2
2023-02-18T09:33:47.671Z,3
2023-02-18T09:35:30.660Z,3
2023-02-18T09:36:36.568Z,2
2023-02-18T09:37:42.519Z,2
2023-02-18T09:38:48.507Z,2
2023-02-18T09:40:31.419Z,2
2023-02-18T09:41:37.422Z,2
2023-02-18T09:42:43.362Z,2
2023-02-18T09:43:49.287Z,2
2023-02-18T09:45:32.220Z,2
2023-02-18T09:46:38.185Z,2
2023-02-18T09:47:48.276Z,2
2023-02-18T09:49:31.128Z,3
2023-02-18T09:50:37.114Z,3
2023-02-18T09:51:43.005Z,2
2023-02-18T09:52:49.032Z,2
2023-02-18T09:54:31.917Z,2
2023-02-18T09:55:37.874Z,2
2023-02-18T09:56:43.821Z,2
2023-02-18T09:57:49.755Z,3
2023-02-18T09:59:32.757Z,2
2023-02-18T10:00:38.693Z,2
2023-02-18T10:01:44.725Z,2
2023-02-18T10:02:50.543Z,2
2023-02-18T10:04:37.698Z,2
2023-02-18T10:05:43.558Z,2
2023-02-18T10:06:49.640Z,2
2023-02-18T10:08:32.475Z,2
2023-02-18T10:09:41.655Z,2
2023-02-18T10:10:44.337Z,2
2023-02-18T10:11:50.245Z,2
2023-02-18T10:13:33.331Z,2
2023-02-18T10:14:39.274Z,2
2023-02-18T10:15:45.498Z,2
2023-02-18T10:16:51.026Z,2
2023-02-18T10:18:34.025Z,2
2023-02-18T10:19:40.050Z,2
2023-02-18T10:20:45.883Z,2
2023-02-18T10:21:51.882Z,2
2023-02-18T10:23:34.888Z,2
2023-02-18T10:24:40.723Z,3
2023-02-18T10:25:46.694Z,3
2023-02-18T10:27:29.748Z,3
2023-02-18T10:28:35.712Z,2
2023-02-18T10:29:41.547Z,3
2023-02-18T10:30:51.545Z,2
2023-02-18T10:32:34.661Z,3
2023-02-18T10:33:40.476Z,2
2023-02-18T10:34:46.429Z,2
2023-02-18T10:36:29.453Z,2
2023-02-18T10:37:39.500Z,2
2023-02-18T10:38:45.690Z,4
2023-02-18T10:39:51.249Z,3
2023-02-18T10:41:34.332Z,3
2023-02-18T10:42:40.197Z,2
2023-02-18T10:43:46.206Z,2
2023-02-18T10:45:29.172Z,2
2023-02-18T10:46:35.110Z,2
2023-02-18T10:47:40.967Z,2
2023-02-18T10:48:46.934Z,2
2023-02-18T10:52:21.079Z,3
2023-02-18T10:52:54.129Z,2
2023-02-18T10:54:41.113Z,2
2023-02-18T10:55:47.060Z,2
2023-02-18T10:57:30.066Z,2
2023-02-18T10:58:36.002Z,2
2023-02-18T10:59:41.928Z,2
2023-02-18T11:00:47.852Z,3
2023-02-18T11:02:30.879Z,3
2023-02-18T11:03:36.825Z,3
2023-02-18T11:04:42.888Z,2
2023-02-18T11:05:52.785Z,3
2023-02-18T11:07:39.807Z,3
2023-02-18T11:08:45.995Z,2
2023-02-18T11:09:51.650Z,4
2023-02-18T11:11:34.755Z,3
2023-02-18T11:12:40.585Z,5
2023-02-18T11:13:46.567Z,4
2023-02-18T11:16:39.828Z,3
2023-02-18T11:17:46.005Z,4
2023-02-18T11:18:51.366Z,3
2023-02-18T11:20:34.436Z,4
2023-02-18T11:21:44.478Z,4
2023-02-18T11:22:50.361Z,4
2023-02-18T11:24:33.441Z,3
2023-02-18T11:25:39.281Z,4
2023-02-18T11:26:45.228Z,3
2023-02-18T11:28:28.250Z,3
2023-02-18T11:29:34.132Z,3
2023-02-18T11:30:40.160Z,3
2023-02-18T11:31:46.167Z,3
2023-02-18T11:33:28.999Z,4
2023-02-18T11:34:34.936Z,3
2023-02-18T11:35:40.818Z,3
2023-02-18T11:36:46.818Z,4
2023-02-18T11:38:29.806Z,3
2023-02-18T11:39:35.803Z,3
2023-02-18T11:40:41.592Z,4
2023-02-18T11:41:47.543Z,4
2023-02-18T11:44:40.541Z,4
2023-02-18T11:45:46.715Z,4
2023-02-18T11:47:33.686Z,3
2023-02-18T11:48:39.546Z,3
2023-02-18T11:49:45.488Z,3
2023-02-18T11:50:51.362Z,3
2023-02-18T11:52:34.481Z,3
2023-02-18T11:53:40.326Z,4
2023-02-18T11:54:46.633Z,3
2023-02-18T11:56:29.234Z,3
2023-02-18T11:57:35.210Z,2
2023-02-18T11:58:41.117Z,2
2023-02-18T11:59:51.131Z,4
2023-02-18T12:01:38.241Z,3
2023-02-18T12:02:44.258Z,3
2023-02-18T12:03:50.080Z,3
2023-02-18T12:05:33.059Z,3
2023-02-18T12:06:39.034Z,3
2023-02-18T12:07:44.918Z,3
2023-02-18T12:08:50.809Z,3
2023-02-18T12:10:33.849Z,3
2023-02-18T12:11:39.766Z,3
2023-02-18T12:12:45.860Z,3
2023-02-18T12:13:55.776Z,3
2023-02-18T12:15:43.088Z,3
2023-02-18T12:16:49.114Z,5
2023-02-18T12:18:31.729Z,3
2023-02-18T12:19:37.673Z,3
2023-02-18T12:20:43.608Z,3
2023-02-18T12:21:49.524Z,3
2023-02-18T12:23:32.567Z,4
2023-02-18T12:24:38.456Z,4
2023-02-18T12:25:44.399Z,4
2023-02-18T12:26:50.294Z,3
2023-02-18T12:28:33.363Z,3
2023-02-18T12:29:43.382Z,3
2023-02-18T12:30:49.372Z,3
2023-02-18T12:32:32.299Z,3
2023-02-18T12:33:38.189Z,4
2023-02-18T12:34:44.122Z,4
2023-02-18T12:35:50.038Z,3
2023-02-18T12:37:33.040Z,3
2023-02-18T12:38:38.978Z,3
2023-02-18T12:39:44.919Z,3
2023-02-18T12:40:50.783Z,3
2023-02-18T12:42:33.828Z,3
2023-02-18T12:43:39.756Z,3
2023-02-18T12:44:46.058Z,3
2023-02-18T12:45:51.633Z,3
2023-02-18T12:47:37.440Z,3
2023-02-18T12:48:40.519Z,3
2023-02-18T12:49:46.469Z,3
2023-02-18T12:51:30.556Z,3
2023-02-18T12:52:35.378Z,3
2023-02-18T12:53:41.366Z,3
2023-02-18T12:54:51.356Z,3
2023-02-18T12:56:38.414Z,3
2023-02-18T12:57:44.388Z,3
2023-02-18T12:58:50.273Z,3
2023-02-18T13:00:33.297Z,3
2023-02-18T13:01:39.303Z,3
2023-02-18T13:02:45.216Z,4
2023-02-18T13:03:51.061Z,11
2023-02-18T13:05:34.068Z,10
2023-02-18T13:06:40.036Z,6
2023-02-18T13:07:50.100Z,3
2023-02-18T13:09:37.515Z,3
2023-02-18T13:10:43.038Z,3
2023-02-18T13:11:48.976Z,4
2023-02-18T13:13:32.009Z,3
2023-02-18T13:14:37.908Z,3
2023-02-18T13:15:43.896Z,3
2023-02-18T13:16:49.797Z,3
2023-02-18T13:18:32.775Z,4
2023-02-18T13:19:38.690Z,3
2023-02-18T13:20:44.749Z,2
2023-02-18T13:21:54.665Z,3
2023-02-18T13:23:37.609Z,2
2023-02-18T13:24:43.575Z,3
2023-02-18T13:25:49.506Z,3
2023-02-18T13:27:32.491Z,3
2023-02-18T13:28:38.399Z,3
2023-02-18T13:29:44.351Z,2
2023-02-18T13:30:50.259Z,3
2023-02-18T13:32:33.239Z,3
2023-02-18T13:33:39.202Z,3
2023-02-18T13:34:45.145Z,2
2023-02-18T13:35:51.045Z,3
2023-02-18T13:37:34.037Z,2
2023-02-18T13:38:40.017Z,3
2023-02-18T13:39:45.901Z,3
2023-02-18T13:40:51.840Z,5
2023-02-18T13:42:35.237Z,3
2023-02-18T13:43:40.773Z,4
2023-02-18T13:44:46.905Z,5
2023-02-18T13:46:29.775Z,4
2023-02-18T13:47:35.725Z,5
2023-02-18T13:48:41.534Z,4
2023-02-18T13:49:47.501Z,3
2023-02-18T13:51:34.536Z,3
2023-02-18T13:52:40.445Z,3
2023-02-18T13:53:46.419Z,3
2023-02-18T13:55:29.547Z,3
2023-02-18T13:56:35.329Z,3
2023-02-18T13:57:41.227Z,3
2023-02-18T13:58:47.278Z,3
2023-02-18T14:00:30.159Z,3
2023-02-18T14:01:36.233Z,3
2023-02-18T14:02:46.439Z,3
2023-02-18T14:03:56.274Z,5
2023-02-18T14:05:39.909Z,5
2023-02-18T14:06:45.162Z,6
2023-02-18T14:07:50.998Z,5
2023-02-18T14:09:34.049Z,4
2023-02-18T14:10:39.947Z,6
2023-02-18T14:11:45.854Z,5
2023-02-18T14:13:28.928Z,5
2023-02-18T14:14:35.021Z,11
2023-02-18T14:15:44.952Z,5
2023-02-18T14:16:54.866Z,6
2023-02-18T14:18:38.062Z,5
2023-02-18T14:19:43.841Z,4
2023-02-18T14:20:49.699Z,4
2023-02-18T14:22:32.709Z,6
2023-02-18T14:23:38.611Z,6
2023-02-18T14:24:44.590Z,9
2023-02-18T14:25:50.472Z,6
2023-02-18T14:27:33.501Z,6
2023-02-18T14:28:43.561Z,5
2023-02-18T14:29:53.638Z,9
2023-02-18T14:31:40.705Z,5
2023-02-18T14:32:46.566Z,4
2023-02-18T14:35:39.602Z,3
2023-02-18T14:36:45.567Z,3
2023-02-18T14:37:51.399Z,4
2023-02-18T14:39:34.551Z,3
2023-02-18T14:40:40.384Z,3
2023-02-18T14:41:46.318Z,4
2023-02-18T14:43:33.429Z,3
2023-02-18T14:44:39.337Z,3
2023-02-18T14:45:45.345Z,3
2023-02-18T14:46:51.134Z,4
2023-02-18T14:48:35.584Z,2
2023-02-18T14:49:40.780Z,7
2023-02-18T14:50:46.105Z,4
2023-02-18T14:52:29.014Z,3
2023-02-18T14:53:35.055Z,4
2023-02-18T14:54:40.854Z,4
2023-02-18T14:55:46.818Z,4
2023-02-18T14:57:29.804Z,4
2023-02-18T14:58:35.745Z,5
2023-02-18T14:59:41.662Z,3
2023-02-18T15:00:47.682Z,3
2023-02-18T15:03:40.572Z,5
2023-02-18T15:04:46.694Z,3
2023-02-18T15:06:33.762Z,3
2023-02-18T15:07:39.579Z,2
2023-02-18T15:08:45.519Z,2
2023-02-18T15:09:51.489Z,5
2023-02-18T15:11:34.399Z,2
2023-02-18T15:12:40.301Z,3
2023-02-18T15:13:46.348Z,3
2023-02-18T15:15:29.364Z,2
2023-02-18T15:16:35.193Z,3
2023-02-18T15:17:41.133Z,4
2023-02-18T15:18:51.122Z,3
2023-02-18T15:20:34.195Z,2
2023-02-18T15:21:40.074Z,3
2023-02-18T15:22:46.083Z,2
2023-02-18T15:24:29.018Z,2
2023-02-18T15:25:34.947Z,2
2023-02-18T15:26:40.804Z,3
2023-02-18T15:27:46.840Z,2
2023-02-18T15:29:29.771Z,3
2023-02-18T15:30:35.804Z,3
2023-02-18T15:31:41.761Z,3
2023-02-18T15:32:51.694Z,3
2023-02-18T15:34:38.814Z,3
2023-02-18T15:35:44.743Z,4
2023-02-18T15:36:50.596Z,4
2023-02-18T15:38:33.694Z,4
2023-02-18T15:39:39.523Z,5
2023-02-18T15:40:45.521Z,4
2023-02-18T15:42:28.514Z,3
2023-02-18T15:43:34.432Z,3
2023-02-18T15:44:40.528Z,4
2023-02-18T15:45:50.339Z,3
2023-02-18T15:47:33.360Z,2
2023-02-18T15:48:39.245Z,2
2023-02-18T15:49:45.257Z,2
2023-02-18T15:50:51.105Z,2
2023-02-18T15:52:34.236Z,2
2023-02-18T15:53:40.031Z,3
2023-02-18T15:54:46.020Z,2
2023-02-18T15:56:29.008Z,2
2023-02-18T15:57:34.907Z,2
2023-02-18T15:58:40.795Z,3
2023-02-18T15:59:46.959Z,2
2023-02-18T16:01:29.790Z,2
2023-02-18T16:02:35.704Z,2
2023-02-18T16:03:45.758Z,2
2023-02-18T16:05:28.770Z,3
2023-02-18T16:06:34.617Z,3
2023-02-18T16:07:40.540Z,2
2023-02-18T16:08:46.498Z,2
2023-02-18T16:10:29.543Z,2
2023-02-18T16:11:35.417Z,3
2023-02-18T16:12:41.311Z,2
2023-02-18T16:13:47.436Z,2
2023-02-18T16:15:30.250Z,2
2023-02-18T16:16:40.285Z,2
2023-02-18T16:17:46.242Z,2
2023-02-18T16:19:29.270Z,3
2023-02-18T16:20:35.137Z,2
2023-02-18T16:21:41.042Z,2
2023-02-18T16:22:47.172Z,2
2023-02-18T16:24:34.097Z,2
2023-02-18T16:25:40.059Z,2
2023-02-18T16:26:50.064Z,2
2023-02-18T16:28:37.122Z,2
2023-02-18T16:29:43.112Z,3
2023-02-18T16:30:48.981Z,2
2023-02-18T16:32:32.010Z,2
2023-02-18T16:33:37.917Z,3
2023-02-18T16:34:43.854Z,3
2023-02-18T16:35:50.866Z,3
2023-02-18T16:37:32.766Z,3
2023-02-18T16:38:38.731Z,4
2023-02-18T16:39:44.635Z,4
2023-02-18T16:40:50.525Z,3
2023-02-18T16:42:33.610Z,4
2023-02-18T16:43:39.475Z,3
2023-02-18T16:44:45.536Z,2
2023-02-18T16:45:51.394Z,2
2023-02-18T16:47:34.377Z,2
2023-02-18T16:48:40.227Z,3
2023-02-18T16:49:46.262Z,3
2023-02-18T16:51:29.281Z,3
2023-02-18T16:52:35.210Z,2
2023-02-18T16:53:41.003Z,3
2023-02-18T16:54:47.007Z,8
2023-02-18T16:58:21.131Z,3
2023-02-18T16:58:54.202Z,3
2023-02-18T17:00:37.160Z,3
2023-02-18T17:01:43.021Z,3
2023-02-18T17:02:49.020Z,2
2023-02-18T17:04:32.015Z,2
2023-02-18T17:05:37.952Z,2
2023-02-18T17:06:43.924Z,2
2023-02-18T17:07:49.753Z,3
2023-02-18T17:09:32.731Z,3
2023-02-18T17:10:38.746Z,2
2023-02-18T17:11:44.669Z,3
2023-02-18T17:12:50.532Z,3
2023-02-18T17:14:33.618Z,2
2023-02-18T17:15:39.470Z,4
2023-02-18T17:16:45.509Z,4
2023-02-18T17:17:51.332Z,3
2023-02-18T17:19:38.467Z,3
2023-02-18T17:20:44.420Z,3
2023-02-18T17:21:50.327Z,3
2023-02-18T17:23:33.261Z,4
2023-02-18T17:24:39.240Z,3
2023-02-18T17:25:45.198Z,3
2023-02-18T17:26:51.016Z,4
2023-02-18T17:28:34.137Z,3
2023-02-18T17:29:39.993Z,2
2023-02-18T17:30:46.013Z,4
2023-02-18T17:31:55.968Z,3
2023-02-18T17:33:38.924Z,4
2023-02-18T17:34:44.912Z,3
2023-02-18T17:35:50.774Z,3
2023-02-18T17:37:33.773Z,4
2023-02-18T17:38:39.684Z,2
2023-02-18T17:39:45.655Z,3
2023-02-18T17:41:28.658Z,3
2023-02-18T17:42:34.560Z,4
2023-02-18T17:43:40.449Z,4
2023-02-18T17:44:46.422Z,7
2023-02-18T17:46:29.427Z,4
2023-02-18T17:47:35.328Z,4
2023-02-18T17:48:41.229Z,3
2023-02-18T17:49:47.258Z,4
2023-02-18T17:51:30.181Z,3
2023-02-18T17:52:36.139Z,3
2023-02-18T17:53:42.011Z,2
2023-02-18T17:54:48.014Z,2
2023-02-18T17:56:30.983Z,2
2023-02-18T17:57:36.976Z,3
2023-02-18T17:58:42.829Z,2
2023-02-18T17:59:48.784Z,2
2023-02-18T18:01:31.769Z,2
2023-02-18T18:02:37.658Z,2
2023-02-18T18:03:43.653Z,2
2023-02-18T18:04:53.699Z,2
2023-02-18T18:06:41.041Z,4
2023-02-18T18:07:46.788Z,3
2023-02-18T18:09:29.904Z,2
2023-02-18T18:10:35.648Z,3
2023-02-18T18:11:41.541Z,4
2023-02-18T18:12:47.428Z,2
2023-02-18T18:14:30.401Z,2
2023-02-18T18:15:36.378Z,2
2023-02-18T18:16:42.346Z,2
2023-02-18T18:17:52.366Z,2
2023-02-18T18:19:39.489Z,2
2023-02-18T18:20:45.328Z,2
2023-02-18T18:21:51.277Z,2
2023-02-18T18:23:34.316Z,2
2023-02-18T18:24:40.254Z,2
2023-02-18T18:25:46.135Z,6
2023-02-18T18:27:29.117Z,8
2023-02-18T18:28:37.528Z,2
2023-02-18T18:29:41.197Z,4
2023-02-18T18:30:47.450Z,11
2023-02-18T18:31:56.944Z,7
2023-02-18T18:33:39.936Z,9
2023-02-18T18:34:48.014Z,5
2023-02-18T18:36:28.958Z,15
2023-02-18T18:37:34.805Z,17
2023-02-18T18:38:40.686Z,6
2023-02-18T18:39:46.684Z,4
2023-02-18T18:41:29.619Z,3
2023-02-18T18:42:35.662Z,3
2023-02-18T18:43:41.446Z,3
2023-02-18T18:44:47.413Z,2
2023-02-18T18:46:30.459Z,2
2023-02-18T18:47:36.330Z,2
2023-02-18T18:48:42.265Z,2
2023-02-18T18:49:48.293Z,2
2023-02-18T18:51:31.190Z,2
2023-02-18T18:52:37.151Z,2
2023-02-18T18:53:43.026Z,2
2023-02-18T18:54:49.045Z,3
2023-02-18T18:56:31.995Z,2
2023-02-18T18:57:37.996Z,3
2023-02-18T18:58:48.059Z,2
2023-02-18T19:00:35.005Z,3
2023-02-18T19:01:40.956Z,3
2023-02-18T19:02:46.988Z,4
2023-02-18T19:06:21.144Z,4
2023-02-18T19:06:54.058Z,5
2023-02-18T19:08:37.032Z,3
2023-02-18T19:09:42.922Z,4
2023-02-18T19:10:48.964Z,10
2023-02-18T19:12:31.897Z,8
2023-02-18T19:13:37.906Z,4
2023-02-18T19:14:43.780Z,3
2023-02-18T19:15:49.673Z,3
2023-02-18T19:17:32.636Z,2
2023-02-18T19:18:38.654Z,3
2023-02-18T19:19:44.502Z,2
2023-02-18T19:20:50.412Z,2